»·PEaware :: DAL12 KSAN-KLAX

DAL12 :: KSAN-KLAX

FLIGHT INFORMATION

Flight Status: Arrived
Operator:
Delta Air Lines
More flights by this operator :: More flights under this callsign
Pilot: Mounir D. (11581)
Aircraft: BOEING 737-300
(B733)
More flights by this aircraft type
Origin: KSAN San Diego Intl-Lindbergh
United States
Destination: KLAX Los Angeles Intl
United States
More flights between these airports :: More routes between these airports
Route: PEBLE6 SLI
File this flight plan on PilotEdge
Remarks: / TEC ROUTE
Altitude:
(Current/Filed)
10,000ft
Speed:
(Current/Filed)
300kts
Departed: 12-Oct-17 12:43 PM
Arrived: 12-Oct-17 01:08 PM
Distance/Time
Traveled:
95nm/0:25
Distance/Time
To Go:
Arrived

Flight Plot

Page will automatically refresh every two minutes.


Map Options




Map Legend


Flown Route
Filed Route
Departure Airport
Arrival Airport
Navaid (VOR, NDB)
Fix

Horizontal Profiles

Position Reports

Time Latitude Longitude Heading Altitude Ground
Speed
12-Oct-17 11:37 32.733191 -117.196864 134 24ft 0kts
12-Oct-17 11:37 32.733191 -117.196864 134 24ft 0kts
12-Oct-17 11:38 32.733191 -117.196864 134 24ft 0kts
12-Oct-17 11:39 32.733191 -117.196864 134 24ft 0kts
12-Oct-17 11:41 32.733191 -117.196864 134 24ft 0kts
12-Oct-17 11:41 32.733191 -117.196864 134 24ft 0kts
12-Oct-17 11:43 32.733191 -117.196864 134 24ft 0kts
12-Oct-17 11:43 32.733191 -117.196864 134 24ft 0kts
12-Oct-17 11:44 32.733191 -117.196864 134 24ft 0kts
12-Oct-17 11:45 32.733191 -117.196864 134 24ft 0kts
12-Oct-17 11:46 32.733191 -117.196864 134 24ft 0kts
12-Oct-17 11:47 32.733191 -117.196864 134 24ft 0kts
12-Oct-17 11:48 32.733191 -117.196864 134 24ft 0kts
12-Oct-17 11:49 32.733191 -117.196864 134 24ft 0kts
12-Oct-17 11:50 32.733191 -117.196864 134 24ft 0kts
12-Oct-17 11:51 32.733191 -117.196864 134 24ft 0kts
12-Oct-17 11:52 32.733191 -117.196864 134 24ft 0kts
12-Oct-17 11:53 32.733191 -117.196864 134 24ft 0kts
12-Oct-17 11:54 32.733191 -117.196864 134 24ft 0kts
12-Oct-17 11:55 32.733191 -117.196864 134 24ft 0kts
12-Oct-17 11:56 32.733191 -117.196864 134 24ft 0kts
12-Oct-17 11:57 32.733191 -117.196864 134 24ft 0kts
12-Oct-17 11:58 32.733191 -117.196864 134 24ft 0kts
12-Oct-17 11:59 32.733191 -117.196864 134 24ft 0kts
12-Oct-17 12:00 32.733191 -117.196864 134 24ft 0kts
12-Oct-17 12:01 32.733191 -117.196864 134 24ft 0kts
12-Oct-17 12:02 32.733191 -117.196864 134 24ft 0kts
12-Oct-17 12:03 32.733191 -117.196864 134 24ft 0kts
12-Oct-17 12:04 32.733191 -117.196864 134 24ft 0kts
12-Oct-17 12:05 32.733191 -117.196864 134 24ft 0kts
12-Oct-17 12:06 32.733191 -117.196864 134 24ft 0kts
12-Oct-17 12:07 32.733191 -117.196864 134 24ft 0kts
12-Oct-17 12:08 32.733191 -117.196864 134 24ft 0kts
12-Oct-17 12:09 32.733191 -117.196864 134 24ft 0kts
12-Oct-17 12:10 32.733191 -117.196864 134 24ft 0kts
12-Oct-17 12:11 32.733191 -117.196864 134 24ft 0kts
12-Oct-17 12:12 32.733191 -117.196864 134 24ft 0kts
12-Oct-17 12:13 32.733191 -117.196864 134 24ft 0kts
12-Oct-17 12:14 32.733191 -117.196864 134 24ft 0kts
12-Oct-17 12:15 32.733191 -117.196864 134 24ft 0kts
12-Oct-17 12:16 32.733191 -117.196864 134 24ft 0kts
12-Oct-17 12:17 32.733191 -117.196864 134 24ft 0kts
12-Oct-17 12:18 32.733191 -117.196864 134 24ft 0kts
12-Oct-17 12:19 32.733191 -117.196864 134 24ft 0kts
12-Oct-17 12:20 32.733191 -117.196864 134 24ft 0kts
12-Oct-17 12:21 32.733191 -117.196864 134 24ft 0kts
12-Oct-17 12:22 32.733191 -117.196864 134 24ft 0kts
12-Oct-17 12:23 32.733191 -117.196864 134 24ft 0kts
12-Oct-17 12:24 32.733191 -117.196864 134 24ft 0kts
12-Oct-17 12:25 32.733191 -117.196864 134 24ft 0kts
12-Oct-17 12:26 32.733191 -117.196864 134 24ft 0kts
12-Oct-17 12:27 32.733191 -117.196864 134 24ft 0kts
12-Oct-17 12:28 32.733191 -117.196864 134 24ft 0kts
12-Oct-17 12:29 32.733191 -117.196864 134 24ft 0kts
12-Oct-17 12:30 32.733191 -117.196864 134 24ft 0kts
12-Oct-17 12:31 32.733191 -117.196864 134 24ft 0kts
12-Oct-17 12:32 32.733191 -117.196864 134 24ft 0kts
12-Oct-17 12:33 32.733191 -117.196864 134 24ft 0kts
12-Oct-17 12:34 32.733191 -117.196864 134 24ft 0kts
12-Oct-17 12:35 32.733191 -117.196864 134 24ft 0kts
12-Oct-17 12:36 32.733191 -117.196864 134 24ft 0kts
12-Oct-17 12:37 32.733191 -117.196864 134 24ft 0kts
12-Oct-17 12:38 32.733191 -117.196864 134 24ft 0kts
12-Oct-17 12:39 32.733510 -117.197396 83 24ft 3kts
12-Oct-17 12:40 32.733393 -117.197623 44 24ft 0kts
12-Oct-17 12:41 32.733393 -117.197623 44 24ft 0kts
12-Oct-17 12:42 32.733393 -117.197623 45 24ft 0kts
12-Oct-17 12:43 32.733293 -117.192815 106 24ft 32kts
12-Oct-17 12:45 32.730544 -117.181420 106 24ft 29kts
12-Oct-17 12:46 32.729514 -117.177122 93 24ft 0kts
12-Oct-17 12:47 32.730869 -117.178638 286 24ft 32kts
12-Oct-17 12:48 32.746811 -117.221474 304 2745ft 180kts
12-Oct-17 12:49 32.776466 -117.273688 300 7090ft 200kts
12-Oct-17 12:50 32.810916 -117.336541 303 9427ft 274kts
12-Oct-17 12:51 32.856846 -117.418008 304 9918ft 340kts
12-Oct-17 12:52 32.934270 -117.480930 328 9963ft 345kts
12-Oct-17 12:53 33.010042 -117.546132 299 9973ft 341kts
12-Oct-17 12:54 33.059591 -117.640953 303 9958ft 342kts
12-Oct-17 12:55 33.111946 -117.728682 307 9951ft 343kts
12-Oct-17 12:56 33.169903 -117.817464 307 9968ft 343kts
12-Oct-17 12:57 33.249936 -117.865599 347 9975ft 348kts
12-Oct-17 12:58 33.342863 -117.894701 342 9971ft 347kts
12-Oct-17 12:59 33.430717 -117.926150 341 9809ft 306kts
12-Oct-17 13:00 33.505057 -117.953427 341 8367ft 269kts
12-Oct-17 13:01 33.567353 -117.977690 341 7019ft 249kts
12-Oct-17 13:02 33.629458 -118.002431 341 6998ft 236kts
12-Oct-17 13:03 33.690145 -118.026179 341 6970ft 235kts
12-Oct-17 13:04 33.752066 -118.049800 341 6977ft 237kts
12-Oct-17 13:05 33.810588 -118.072215 341 6980ft 236kts
12-Oct-17 13:06 33.871476 -118.096409 341 6875ft 236kts
12-Oct-17 13:07 33.931460 -118.120313 340 5439ft 223kts
12-Oct-17 13:08 33.958940 -118.174546 269 3951ft 195kts
12-Oct-17 13:09 33.952400 -118.233378 261 2534ft 164kts
12-Oct-17 13:10 33.945960 -118.282163 264 1307ft 147kts
12-Oct-17 13:11 33.942570 -118.331226 262 1178ft 140kts
12-Oct-17 13:12 33.937932 -118.376550 262 223ft 127kts
12-Oct-17 13:13 33.936356 -118.398812 285 132ft 21kts
12-Oct-17 13:14 33.936509 -118.399392 289 132ft 0kts
12-Oct-17 13:15 33.937065 -118.404061 330 132ft 21kts
12-Oct-17 13:16 33.938107 -118.406450 263 132ft 17kts
12-Oct-17 13:17 33.940872 -118.409435 267 132ft 4kts
12-Oct-17 13:18 33.940869 -118.409480 264 132ft 0kts

Navigation Log

Ident Type
1. KSAN Airport
2. MELDY Fix
3. PEBLE Fix
4. SLI Navaid
5. KLAX Airport